Pentwater, Michigan
Current Conditions -  °F | °C
As of 7:55 PM on Saturday 20 Dec 2014 (Local Time) from KLDM Reporting Station
Overcast Overcast  
Wind Chill: 26°   Ceiling: 4200
Heat Index: 31°   Visibility: 7mi
Dew Point: 27°   Wind: 5mph
Humidity: 85%   Direction: 120°ESE
Pressure: 30.26"   Gusts: NA
Location:  43.78°N, 86.43°W
Report Text: KLDM 210055Z AUTO 12004KT 7SM SCT019 OVC042 M01/M03 A3026 RMK AO2 T10071030
Loading
Personal Weather Stations






























Interactive Weather Map New forecast layout! Learn more

10-Day Weather Forecast

Advertisements
Track Severe Weather on mobile